Time,TemperatureF,DewpointF,PressureIn,WindDirection,WindDirectionDegrees,WindSpeedMPH,WindSpeedGustMPH,Humidity,HourlyPrecipIn,Conditions,Clouds,dailyrainin,SolarRadiationWatts/m^2,SoftwareType,DateUTC
2013-01-26 01:00:00,39.8,37.4,30.25,SSE,163,0.0,23.0,91,0.00,,,0.00,0,Wunderground v.1.15,2013-01-26 06:00:00,
2013-01-26 02:00:00,37.4,35.3,30.25,SSE,163,0.0,23.0,92,0.00,,,0.00,0,Wunderground v.1.15,2013-01-26 07:00:00,
2013-01-26 03:00:00,36.0,34.2,30.24,SSE,163,0.0,23.0,93,0.00,,,0.00,0,Wunderground v.1.15,2013-01-26 08:00:00,
2013-01-26 04:00:00,35.7,34.1,30.23,SSE,163,0.0,23.0,94,0.00,,,0.00,0,Wunderground v.1.15,2013-01-26 09:00:00,
2013-01-26 05:00:00,35.0,33.7,30.23,SSE,163,0.0,23.0,95,0.00,,,0.00,0,Wunderground v.1.15,2013-01-26 10:00:00,
2013-01-26 06:00:00,34.8,33.5,30.24,SSW,205,0.0,23.0,95,0.00,,,0.00,0,Wunderground v.1.15,2013-01-26 11:00:00,
2013-01-26 07:00:00,33.8,32.5,30.26,SSW,205,0.0,23.0,95,0.00,,,0.00,0,Wunderground v.1.15,2013-01-26 12:00:00,
2013-01-26 08:00:00,39.0,38.2,30.27,SSW,205,0.0,23.0,97,0.00,,,0.00,88,Wunderground v.1.15,2013-01-26 13:00:00,
2013-01-26 09:00:00,55.9,52.1,30.29,SSW,205,0.0,23.0,87,0.00,,,0.00,285,Wunderground v.1.15,2013-01-26 14:00:00,
2013-01-26 10:00:00,64.3,53.9,30.30,NNW,330,3.0,23.0,69,0.00,,,0.00,503,Wunderground v.1.15,2013-01-26 15:00:00,
2013-01-26 11:00:00,68.7,52.8,30.29,NE,44,4.0,23.0,57,0.00,,,0.00,654,Wunderground v.1.15,2013-01-26 16:00:00,
2013-01-26 12:00:00,70.9,50.8,30.27,West,259,5.0,23.0,49,0.00,,,0.00,749,Wunderground v.1.15,2013-01-26 17:00:00,
2013-01-26 13:00:00,72.4,51.6,30.24,SW,227,6.0,23.0,48,0.00,,,0.00,765,Wunderground v.1.15,2013-01-26 18:00:00,
2013-01-26 14:00:00,73.5,52.0,30.20,SSW,197,6.0,23.0,47,0.00,,,0.00,708,Wunderground v.1.15,2013-01-26 19:00:00,
2013-01-26 15:00:00,75.6,50.9,30.18,NNW,346,3.0,23.0,42,0.00,,,0.00,592,Wunderground v.1.15,2013-01-26 20:00:00,
2013-01-26 16:00:00,76.6,50.5,30.18,West,271,2.0,23.0,40,0.00,,,0.00,415,Wunderground v.1.15,2013-01-26 21:00:00,
2013-01-26 17:00:00,76.6,51.8,30.17,North,350,2.0,23.0,42,0.00,,,0.00,185,Wunderground v.1.15,2013-01-26 22:00:00,
2013-01-26 18:00:00,71.5,51.9,30.19,NNE,25,0.0,23.0,50,0.00,,,0.00,5,Wunderground v.1.15,2013-01-26 23:00:00,
2013-01-26 19:01:00,56.7,48.1,30.21,NNE,25,0.0,23.0,73,0.00,,,0.00,0,Wunderground v.1.15,2013-01-27 00:01:00,
2013-01-26 20:00:00,50.2,44.9,30.22,NNE,25,0.0,23.0,82,0.00,,,0.00,0,Wunderground v.1.15,2013-01-27 01:00:00,
2013-01-26 21:00:00,47.1,44.0,30.23,West,262,0.0,23.0,89,0.00,,,0.00,0,Wunderground v.1.15,2013-01-27 02:00:00,
2013-01-26 22:00:00,49.3,45.0,30.24,West,267,0.0,23.0,85,0.00,,,0.00,0,Wunderground v.1.15,2013-01-27 03:00:00,
2013-01-26 23:00:00,44.6,41.6,30.25,West,267,0.0,23.0,89,0.00,,,0.00,0,Wunderground v.1.15,2013-01-27 04:00:00,